sensor_id;sensor_type;location;lat;lon;timestamp;temperature;humidity
610;DHT22;292;48.800;9.216;2023-07-28T00:02:25;21.10;81.70
610;DHT22;292;48.800;9.216;2023-07-28T00:04:52;21.10;81.70
610;DHT22;292;48.800;9.216;2023-07-28T00:07:19;21.00;81.60
610;DHT22;292;48.800;9.216;2023-07-28T00:09:48;21.00;82.00
610;DHT22;292;48.800;9.216;2023-07-28T00:12:15;20.90;82.00
610;DHT22;292;48.800;9.216;2023-07-28T00:14:43;20.90;82.00
610;DHT22;292;48.800;9.216;2023-07-28T00:17:10;20.90;82.00
610;DHT22;292;48.800;9.216;2023-07-28T00:19:37;20.90;82.00
610;DHT22;292;48.800;9.216;2023-07-28T00:22:04;20.90;82.20
610;DHT22;292;48.800;9.216;2023-07-28T00:24:31;20.90;82.40
610;DHT22;292;48.800;9.216;2023-07-28T00:27:01;20.80;82.40
610;DHT22;292;48.800;9.216;2023-07-28T00:29:28;20.80;82.40
610;DHT22;292;48.800;9.216;2023-07-28T00:31:56;20.80;82.40
610;DHT22;292;48.800;9.216;2023-07-28T00:34:23;20.80;82.40
610;DHT22;292;48.800;9.216;2023-07-28T00:36:50;20.80;82.50
610;DHT22;292;48.800;9.216;2023-07-28T00:39:19;20.80;82.50
610;DHT22;292;48.800;9.216;2023-07-28T00:41:49;20.70;82.60
610;DHT22;292;48.800;9.216;2023-07-28T00:44:18;20.70;82.60
610;DHT22;292;48.800;9.216;2023-07-28T00:46:48;20.70;82.50
610;DHT22;292;48.800;9.216;2023-07-28T00:49:15;20.70;82.40
610;DHT22;292;48.800;9.216;2023-07-28T00:51:43;20.70;82.50
610;DHT22;292;48.800;9.216;2023-07-28T00:54:11;20.70;82.50
610;DHT22;292;48.800;9.216;2023-07-28T00:56:39;20.60;82.40
610;DHT22;292;48.800;9.216;2023-07-28T00:59:07;20.60;82.20
610;DHT22;292;48.800;9.216;2023-07-28T01:01:35;20.60;82.00
610;DHT22;292;48.800;9.216;2023-07-28T01:04:02;20.60;81.60
610;DHT22;292;48.800;9.216;2023-07-28T01:06:35;20.50;81.40
610;DHT22;292;48.800;9.216;2023-07-28T01:09:06;20.50;81.40
610;DHT22;292;48.800;9.216;2023-07-28T01:11:36;20.50;81.00
610;DHT22;292;48.800;9.216;2023-07-28T01:14:03;20.40;80.90
610;DHT22;292;48.800;9.216;2023-07-28T01:16:30;20.40;80.90
610;DHT22;292;48.800;9.216;2023-07-28T01:18:59;20.40;81.00
610;DHT22;292;48.800;9.216;2023-07-28T01:21:30;20.40;81.00
610;DHT22;292;48.800;9.216;2023-07-28T01:24:05;20.40;81.00
610;DHT22;292;48.800;9.216;2023-07-28T01:26:35;20.40;81.20
610;DHT22;292;48.800;9.216;2023-07-28T01:29:03;20.40;81.20
610;DHT22;292;48.800;9.216;2023-07-28T01:31:31;20.40;81.20
610;DHT22;292;48.800;9.216;2023-07-28T01:33:58;20.40;81.20
610;DHT22;292;48.800;9.216;2023-07-28T01:36:27;20.40;81.20
610;DHT22;292;48.800;9.216;2023-07-28T01:38:54;20.40;81.00
610;DHT22;292;48.800;9.216;2023-07-28T01:41:21;20.40;81.20
610;DHT22;292;48.800;9.216;2023-07-28T01:43:49;20.40;81.00
610;DHT22;292;48.800;9.216;2023-07-28T01:46:17;20.40;80.90
610;DHT22;292;48.800;9.216;2023-07-28T01:48:45;20.40;80.00
610;DHT22;292;48.800;9.216;2023-07-28T01:51:13;20.40;79.70
610;DHT22;292;48.800;9.216;2023-07-28T01:53:41;20.40;79.70
610;DHT22;292;48.800;9.216;2023-07-28T01:56:09;20.40;79.40
610;DHT22;292;48.800;9.216;2023-07-28T01:58:36;20.40;79.30
610;DHT22;292;48.800;9.216;2023-07-28T02:01:06;20.40;79.30
610;DHT22;292;48.800;9.216;2023-07-28T02:03:34;20.40;79.30
610;DHT22;292;48.800;9.216;2023-07-28T02:06:01;20.40;79.40
610;DHT22;292;48.800;9.216;2023-07-28T02:08:28;20.40;79.40
610;DHT22;292;48.800;9.216;2023-07-28T02:10:55;20.40;79.40
610;DHT22;292;48.800;9.216;2023-07-28T02:13:25;20.40;79.60
610;DHT22;292;48.800;9.216;2023-07-28T02:15:54;20.40;79.70
610;DHT22;292;48.800;9.216;2023-07-28T02:18:23;20.30;79.70
610;DHT22;292;48.800;9.216;2023-07-28T02:20:50;20.30;79.90
610;DHT22;292;48.800;9.216;2023-07-28T02:23:17;20.30;80.00
610;DHT22;292;48.800;9.216;2023-07-28T02:25:44;20.30;80.00
610;DHT22;292;48.800;9.216;2023-07-28T02:28:11;20.30;80.10
610;DHT22;292;48.800;9.216;2023-07-28T02:30:38;20.30;80.30
610;DHT22;292;48.800;9.216;2023-07-28T02:33:06;20.30;80.30
610;DHT22;292;48.800;9.216;2023-07-28T02:35:34;20.20;80.30
610;DHT22;292;48.800;9.216;2023-07-28T02:38:02;20.20;80.40
610;DHT22;292;48.800;9.216;2023-07-28T02:40:32;20.20;80.40
610;DHT22;292;48.800;9.216;2023-07-28T02:42:59;20.20;80.40
610;DHT22;292;48.800;9.216;2023-07-28T02:45:28;20.20;80.40
610;DHT22;292;48.800;9.216;2023-07-28T02:47:55;20.20;80.40
610;DHT22;292;48.800;9.216;2023-07-28T02:50:22;20.20;80.40
610;DHT22;292;48.800;9.216;2023-07-28T02:52:50;20.20;80.40
610;DHT22;292;48.800;9.216;2023-07-28T02:55:17;20.20;80.70
610;DHT22;292;48.800;9.216;2023-07-28T02:57:44;20.10;80.70
610;DHT22;292;48.800;9.216;2023-07-28T03:00:12;20.10;80.70
610;DHT22;292;48.800;9.216;2023-07-28T03:02:40;20.10;80.70
610;DHT22;292;48.800;9.216;2023-07-28T03:05:08;20.10;80.70
610;DHT22;292;48.800;9.216;2023-07-28T03:07:35;20.10;80.70
610;DHT22;292;48.800;9.216;2023-07-28T03:10:04;20.10;80.70
610;DHT22;292;48.800;9.216;2023-07-28T03:12:31;20.10;80.70
610;DHT22;292;48.800;9.216;2023-07-28T03:15:00;20.10;80.60
610;DHT22;292;48.800;9.216;2023-07-28T03:17:27;20.10;80.60
610;DHT22;292;48.800;9.216;2023-07-28T03:19:54;20.10;80.60
610;DHT22;292;48.800;9.216;2023-07-28T03:22:21;20.10;80.60
610;DHT22;292;48.800;9.216;2023-07-28T03:24:48;20.20;80.40
610;DHT22;292;48.800;9.216;2023-07-28T03:27:17;20.10;80.40
610;DHT22;292;48.800;9.216;2023-07-28T03:29:44;20.20;80.40
610;DHT22;292;48.800;9.216;2023-07-28T03:32:11;20.20;80.30
610;DHT22;292;48.800;9.216;2023-07-28T03:34:38;20.10;80.30
610;DHT22;292;48.800;9.216;2023-07-28T03:37:05;20.10;80.40
610;DHT22;292;48.800;9.216;2023-07-28T03:39:32;20.10;80.30
610;DHT22;292;48.800;9.216;2023-07-28T03:41:59;20.10;80.40
610;DHT22;292;48.800;9.216;2023-07-28T03:44:28;20.10;80.60
610;DHT22;292;48.800;9.216;2023-07-28T03:46:56;20.10;80.40
610;DHT22;292;48.800;9.216;2023-07-28T03:49:23;20.10;80.40
610;DHT22;292;48.800;9.216;2023-07-28T03:51:50;20.10;80.40
610;DHT22;292;48.800;9.216;2023-07-28T03:54:17;20.10;80.40
610;DHT22;292;48.800;9.216;2023-07-28T03:56:44;20.10;80.30
610;DHT22;292;48.800;9.216;2023-07-28T03:59:11;20.10;80.30
610;DHT22;292;48.800;9.216;2023-07-28T04:01:39;20.10;80.30
610;DHT22;292;48.800;9.216;2023-07-28T04:04:07;20.10;80.10
610;DHT22;292;48.800;9.216;2023-07-28T04:06:40;20.20;80.10
610;DHT22;292;48.800;9.216;2023-07-28T04:09:08;20.10;80.30
610;DHT22;292;48.800;9.216;2023-07-28T04:11:35;20.10;80.40
610;DHT22;292;48.800;9.216;2023-07-28T04:14:03;20.10;80.40
610;DHT22;292;48.800;9.216;2023-07-28T04:16:30;20.10;80.60
610;DHT22;292;48.800;9.216;2023-07-28T04:18:59;20.10;80.60
610;DHT22;292;48.800;9.216;2023-07-28T04:21:26;20.00;80.90
610;DHT22;292;48.800;9.216;2023-07-28T04:23:53;20.00;81.00
610;DHT22;292;48.800;9.216;2023-07-28T04:26:20;20.00;81.00
610;DHT22;292;48.800;9.216;2023-07-28T04:28:47;20.00;81.20
610;DHT22;292;48.800;9.216;2023-07-28T04:31:14;20.00;81.20
610;DHT22;292;48.800;9.216;2023-07-28T04:33:42;20.00;81.40
610;DHT22;292;48.800;9.216;2023-07-28T04:36:11;20.00;81.30
610;DHT22;292;48.800;9.216;2023-07-28T04:38:38;20.00;81.40
610;DHT22;292;48.800;9.216;2023-07-28T04:41:06;20.00;81.60
610;DHT22;292;48.800;9.216;2023-07-28T04:43:33;20.00;81.60
610;DHT22;292;48.800;9.216;2023-07-28T04:46:00;20.00;81.60
610;DHT22;292;48.800;9.216;2023-07-28T04:48:27;20.00;81.40
610;DHT22;292;48.800;9.216;2023-07-28T04:50:55;20.00;81.60
610;DHT22;292;48.800;9.216;2023-07-28T04:53:25;20.00;81.70
610;DHT22;292;48.800;9.216;2023-07-28T04:55:52;20.00;81.70
610;DHT22;292;48.800;9.216;2023-07-28T04:58:19;20.00;81.90
610;DHT22;292;48.800;9.216;2023-07-28T05:00:46;20.00;81.90
610;DHT22;292;48.800;9.216;2023-07-28T05:03:14;20.10;81.90
610;DHT22;292;48.800;9.216;2023-07-28T05:05:44;20.00;82.00
610;DHT22;292;48.800;9.216;2023-07-28T05:08:11;20.00;82.20
610;DHT22;292;48.800;9.216;2023-07-28T05:10:44;20.00;82.50
610;DHT22;292;48.800;9.216;2023-07-28T05:13:11;20.00;82.60
610;DHT22;292;48.800;9.216;2023-07-28T05:15:41;20.00;82.80
610;DHT22;292;48.800;9.216;2023-07-28T05:18:08;20.00;83.10
610;DHT22;292;48.800;9.216;2023-07-28T05:20:35;20.00;83.20
610;DHT22;292;48.800;9.216;2023-07-28T05:23:02;20.10;83.20
610;DHT22;292;48.800;9.216;2023-07-28T05:25:29;20.10;83.40
610;DHT22;292;48.800;9.216;2023-07-28T05:27:58;20.10;83.50
610;DHT22;292;48.800;9.216;2023-07-28T05:30:25;20.10;83.50
610;DHT22;292;48.800;9.216;2023-07-28T05:32:57;20.20;83.40
610;DHT22;292;48.800;9.216;2023-07-28T05:35:24;20.20;83.60
610;DHT22;292;48.800;9.216;2023-07-28T05:37:52;20.20;83.50
610;DHT22;292;48.800;9.216;2023-07-28T05:40:20;20.20;83.60
610;DHT22;292;48.800;9.216;2023-07-28T05:42:47;20.20;83.50
610;DHT22;292;48.800;9.216;2023-07-28T05:45:16;20.20;83.50
610;DHT22;292;48.800;9.216;2023-07-28T05:47:45;20.20;83.40
610;DHT22;292;48.800;9.216;2023-07-28T05:50:13;20.20;83.20
610;DHT22;292;48.800;9.216;2023-07-28T05:52:40;20.20;83.20
610;DHT22;292;48.800;9.216;2023-07-28T05:55:07;20.20;83.60
610;DHT22;292;48.800;9.216;2023-07-28T05:57:34;20.20;83.90
610;DHT22;292;48.800;9.216;2023-07-28T06:00:05;20.10;83.90
610;DHT22;292;48.800;9.216;2023-07-28T06:02:37;20.10;83.90
610;DHT22;292;48.800;9.216;2023-07-28T06:05:06;20.10;84.10
610;DHT22;292;48.800;9.216;2023-07-28T06:07:33;20.10;84.10
610;DHT22;292;48.800;9.216;2023-07-28T06:10:06;20.10;84.20
610;DHT22;292;48.800;9.216;2023-07-28T06:12:34;20.10;84.20
610;DHT22;292;48.800;9.216;2023-07-28T06:15:02;20.10;84.40
610;DHT22;292;48.800;9.216;2023-07-28T06:17:29;20.10;84.20
610;DHT22;292;48.800;9.216;2023-07-28T06:19:59;20.10;84.20
610;DHT22;292;48.800;9.216;2023-07-28T06:22:31;20.10;84.40
610;DHT22;292;48.800;9.216;2023-07-28T06:24:58;20.10;84.40
610;DHT22;292;48.800;9.216;2023-07-28T06:27:26;20.20;84.50
610;DHT22;292;48.800;9.216;2023-07-28T06:29:54;20.20;84.40
610;DHT22;292;48.800;9.216;2023-07-28T06:32:21;20.20;84.40
610;DHT22;292;48.800;9.216;2023-07-28T06:34:49;20.20;84.40
610;DHT22;292;48.800;9.216;2023-07-28T06:37:20;20.30;84.50
610;DHT22;292;48.800;9.216;2023-07-28T06:39:47;20.30;84.70
610;DHT22;292;48.800;9.216;2023-07-28T06:42:14;20.30;84.70
610;DHT22;292;48.800;9.216;2023-07-28T06:44:42;20.30;84.70
610;DHT22;292;48.800;9.216;2023-07-28T06:47:10;20.40;84.70
610;DHT22;292;48.800;9.216;2023-07-28T06:49:37;20.40;84.70
610;DHT22;292;48.800;9.216;2023-07-28T06:52:04;20.40;84.80
610;DHT22;292;48.800;9.216;2023-07-28T06:54:39;20.40;84.80
610;DHT22;292;48.800;9.216;2023-07-28T06:57:06;20.40;84.70
610;DHT22;292;48.800;9.216;2023-07-28T06:59:34;20.40;84.90
610;DHT22;292;48.800;9.216;2023-07-28T07:02:01;20.40;85.10
610;DHT22;292;48.800;9.216;2023-07-28T07:04:28;20.40;85.20
610;DHT22;292;48.800;9.216;2023-07-28T07:06:56;20.50;85.20
610;DHT22;292;48.800;9.216;2023-07-28T07:09:24;20.50;85.50
610;DHT22;292;48.800;9.216;2023-07-28T07:11:52;20.50;85.70
610;DHT22;292;48.800;9.216;2023-07-28T07:14:20;20.50;85.70
610;DHT22;292;48.800;9.216;2023-07-28T07:16:48;20.50;85.80
610;DHT22;292;48.800;9.216;2023-07-28T07:19:15;20.60;85.80
610;DHT22;292;48.800;9.216;2023-07-28T07:21:43;20.60;85.80
610;DHT22;292;48.800;9.216;2023-07-28T07:24:12;20.60;85.70
610;DHT22;292;48.800;9.216;2023-07-28T07:26:40;20.60;85.70
610;DHT22;292;48.800;9.216;2023-07-28T07:29:09;20.70;85.70
610;DHT22;292;48.800;9.216;2023-07-28T07:31:36;20.70;85.70
610;DHT22;292;48.800;9.216;2023-07-28T07:34:04;20.70;85.40
610;DHT22;292;48.800;9.216;2023-07-28T07:36:31;20.70;85.50
610;DHT22;292;48.800;9.216;2023-07-28T07:38:58;20.70;85.50
610;DHT22;292;48.800;9.216;2023-07-28T07:41:26;20.70;85.50
610;DHT22;292;48.800;9.216;2023-07-28T07:43:55;20.70;85.10
610;DHT22;292;48.800;9.216;2023-07-28T07:46:23;20.80;85.20
610;DHT22;292;48.800;9.216;2023-07-28T07:48:51;20.80;84.90
610;DHT22;292;48.800;9.216;2023-07-28T07:51:18;20.80;85.10
610;DHT22;292;48.800;9.216;2023-07-28T07:53:45;20.90;84.90
610;DHT22;292;48.800;9.216;2023-07-28T07:56:13;20.90;84.90
610;DHT22;292;48.800;9.216;2023-07-28T07:58:42;20.90;84.80
610;DHT22;292;48.800;9.216;2023-07-28T08:01:10;21.00;84.70
610;DHT22;292;48.800;9.216;2023-07-28T08:03:40;21.00;84.50
610;DHT22;292;48.800;9.216;2023-07-28T08:06:07;21.00;84.50
610;DHT22;292;48.800;9.216;2023-07-28T08:08:37;21.10;84.40
610;DHT22;292;48.800;9.216;2023-07-28T08:11:04;21.10;84.10
610;DHT22;292;48.800;9.216;2023-07-28T08:13:33;21.10;83.90
610;DHT22;292;48.800;9.216;2023-07-28T08:16:04;21.20;83.80
610;DHT22;292;48.800;9.216;2023-07-28T08:18:32;21.20;83.60
610;DHT22;292;48.800;9.216;2023-07-28T08:21:01;21.20;83.50
610;DHT22;292;48.800;9.216;2023-07-28T08:23:28;21.30;83.10
610;DHT22;292;48.800;9.216;2023-07-28T08:25:55;21.30;82.90
610;DHT22;292;48.800;9.216;2023-07-28T08:28:22;21.30;82.80
610;DHT22;292;48.800;9.216;2023-07-28T08:30:54;21.40;82.80
610;DHT22;292;48.800;9.216;2023-07-28T08:33:22;21.40;82.80
610;DHT22;292;48.800;9.216;2023-07-28T08:35:49;21.40;82.60
610;DHT22;292;48.800;9.216;2023-07-28T08:38:18;21.50;82.50
610;DHT22;292;48.800;9.216;2023-07-28T08:40:45;21.50;82.40
610;DHT22;292;48.800;9.216;2023-07-28T08:43:13;21.50;82.40
610;DHT22;292;48.800;9.216;2023-07-28T08:45:40;21.50;82.20
610;DHT22;292;48.800;9.216;2023-07-28T08:48:07;21.60;82.10
610;DHT22;292;48.800;9.216;2023-07-28T08:50:35;21.60;82.10
610;DHT22;292;48.800;9.216;2023-07-28T08:53:02;21.60;82.00
610;DHT22;292;48.800;9.216;2023-07-28T08:55:31;21.60;81.90
610;DHT22;292;48.800;9.216;2023-07-28T08:58:13;21.60;81.70
610;DHT22;292;48.800;9.216;2023-07-28T09:00:41;21.70;81.70
610;DHT22;292;48.800;9.216;2023-07-28T09:03:11;21.70;81.70
610;DHT22;292;48.800;9.216;2023-07-28T09:05:38;21.70;81.70
610;DHT22;292;48.800;9.216;2023-07-28T09:08:09;21.70;81.70
610;DHT22;292;48.800;9.216;2023-07-28T09:10:47;21.80;81.90
610;DHT22;292;48.800;9.216;2023-07-28T09:13:35;21.80;81.90
610;DHT22;292;48.800;9.216;2023-07-28T09:16:03;21.80;81.70
610;DHT22;292;48.800;9.216;2023-07-28T09:18:30;21.80;81.60
610;DHT22;292;48.800;9.216;2023-07-28T09:21:00;21.80;81.60
610;DHT22;292;48.800;9.216;2023-07-28T09:23:28;21.90;81.40
610;DHT22;292;48.800;9.216;2023-07-28T09:26:03;21.90;81.40
610;DHT22;292;48.800;9.216;2023-07-28T09:28:37;21.90;81.30
610;DHT22;292;48.800;9.216;2023-07-28T09:31:05;21.90;81.30
610;DHT22;292;48.800;9.216;2023-07-28T09:33:35;22.00;81.20
610;DHT22;292;48.800;9.216;2023-07-28T09:36:10;22.00;81.20
610;DHT22;292;48.800;9.216;2023-07-28T09:38:38;22.00;81.20
610;DHT22;292;48.800;9.216;2023-07-28T09:41:09;22.00;81.00
610;DHT22;292;48.800;9.216;2023-07-28T09:43:38;22.00;80.90
610;DHT22;292;48.800;9.216;2023-07-28T09:46:07;22.10;80.70
610;DHT22;292;48.800;9.216;2023-07-28T09:48:37;22.10;80.70
610;DHT22;292;48.800;9.216;2023-07-28T09:51:08;22.20;80.70
610;DHT22;292;48.800;9.216;2023-07-28T09:53:52;22.20;80.70
610;DHT22;292;48.800;9.216;2023-07-28T09:56:26;22.20;80.60
610;DHT22;292;48.800;9.216;2023-07-28T09:58:56;22.30;80.30
610;DHT22;292;48.800;9.216;2023-07-28T10:01:24;22.30;80.10
610;DHT22;292;48.800;9.216;2023-07-28T10:03:54;22.40;79.90
610;DHT22;292;48.800;9.216;2023-07-28T10:06:23;22.40;79.60
610;DHT22;292;48.800;9.216;2023-07-28T10:08:50;22.50;79.30
610;DHT22;292;48.800;9.216;2023-07-28T10:11:17;22.50;78.80
610;DHT22;292;48.800;9.216;2023-07-28T10:13:47;22.50;78.10
610;DHT22;292;48.800;9.216;2023-07-28T10:16:16;22.60;77.70
610;DHT22;292;48.800;9.216;2023-07-28T10:18:54;22.60;77.30
610;DHT22;292;48.800;9.216;2023-07-28T10:21:27;22.60;77.10
610;DHT22;292;48.800;9.216;2023-07-28T10:23:57;22.70;77.00
610;DHT22;292;48.800;9.216;2023-07-28T10:26:38;22.70;77.00
610;DHT22;292;48.800;9.216;2023-07-28T10:29:12;22.70;76.80
610;DHT22;292;48.800;9.216;2023-07-28T10:31:50;22.80;76.50
610;DHT22;292;48.800;9.216;2023-07-28T10:34:18;22.80;76.20
610;DHT22;292;48.800;9.216;2023-07-28T10:36:48;22.80;76.20
610;DHT22;292;48.800;9.216;2023-07-28T10:39:22;22.80;76.00
610;DHT22;292;48.800;9.216;2023-07-28T10:42:03;22.80;75.80
610;DHT22;292;48.800;9.216;2023-07-28T10:44:33;22.80;75.70
610;DHT22;292;48.800;9.216;2023-07-28T10:47:00;22.90;75.50
610;DHT22;292;48.800;9.216;2023-07-28T10:49:27;22.90;75.50
610;DHT22;292;48.800;9.216;2023-07-28T10:51:55;22.90;75.50
610;DHT22;292;48.800;9.216;2023-07-28T10:54:22;23.00;75.40
610;DHT22;292;48.800;9.216;2023-07-28T10:56:49;23.00;75.20
610;DHT22;292;48.800;9.216;2023-07-28T10:59:16;23.10;75.00
610;DHT22;292;48.800;9.216;2023-07-28T11:01:44;23.10;74.70
610;DHT22;292;48.800;9.216;2023-07-28T11:04:14;23.10;74.50
610;DHT22;292;48.800;9.216;2023-07-28T11:06:42;23.10;74.50
610;DHT22;292;48.800;9.216;2023-07-28T11:09:10;23.20;74.70
610;DHT22;292;48.800;9.216;2023-07-28T11:11:38;23.20;74.80
610;DHT22;292;48.800;9.216;2023-07-28T11:14:07;23.20;74.70
610;DHT22;292;48.800;9.216;2023-07-28T11:16:36;23.20;74.70
610;DHT22;292;48.800;9.216;2023-07-28T11:19:08;23.30;74.70
610;DHT22;292;48.800;9.216;2023-07-28T11:21:37;23.30;74.70
610;DHT22;292;48.800;9.216;2023-07-28T11:24:05;23.40;74.80
610;DHT22;292;48.800;9.216;2023-07-28T11:26:32;23.50;74.50
610;DHT22;292;48.800;9.216;2023-07-28T11:29:02;23.50;74.10
610;DHT22;292;48.800;9.216;2023-07-28T11:31:30;23.50;73.90
610;DHT22;292;48.800;9.216;2023-07-28T11:33:58;23.60;73.70
610;DHT22;292;48.800;9.216;2023-07-28T11:36:28;23.60;73.40
610;DHT22;292;48.800;9.216;2023-07-28T11:38:57;23.70;73.20
610;DHT22;292;48.800;9.216;2023-07-28T11:41:28;23.80;73.10
610;DHT22;292;48.800;9.216;2023-07-28T11:43:55;23.80;72.80
610;DHT22;292;48.800;9.216;2023-07-28T11:46:32;23.90;72.20
610;DHT22;292;48.800;9.216;2023-07-28T11:49:07;24.00;71.60
610;DHT22;292;48.800;9.216;2023-07-28T11:51:58;24.10;71.60
610;DHT22;292;48.800;9.216;2023-07-28T11:54:26;24.10;71.10
610;DHT22;292;48.800;9.216;2023-07-28T11:56:56;24.20;70.30
610;DHT22;292;48.800;9.216;2023-07-28T11:59:24;24.30;69.20
610;DHT22;292;48.800;9.216;2023-07-28T12:01:52;24.30;68.70
610;DHT22;292;48.800;9.216;2023-07-28T12:04:20;24.40;68.20
610;DHT22;292;48.800;9.216;2023-07-28T12:07:18;24.40;67.90
610;DHT22;292;48.800;9.216;2023-07-28T12:09:50;24.40;67.60
610;DHT22;292;48.800;9.216;2023-07-28T12:12:18;24.50;67.30
610;DHT22;292;48.800;9.216;2023-07-28T12:14:46;24.50;66.70
610;DHT22;292;48.800;9.216;2023-07-28T12:17:14;24.50;66.90
610;DHT22;292;48.800;9.216;2023-07-28T12:19:58;24.50;67.30
610;DHT22;292;48.800;9.216;2023-07-28T12:22:27;24.50;67.00
610;DHT22;292;48.800;9.216;2023-07-28T12:24:54;24.50;67.20
610;DHT22;292;48.800;9.216;2023-07-28T12:27:23;24.40;67.50
610;DHT22;292;48.800;9.216;2023-07-28T12:29:52;24.40;67.70
610;DHT22;292;48.800;9.216;2023-07-28T12:32:19;24.40;68.30
610;DHT22;292;48.800;9.216;2023-07-28T12:34:47;24.40;68.60
610;DHT22;292;48.800;9.216;2023-07-28T12:37:14;24.40;68.50
610;DHT22;292;48.800;9.216;2023-07-28T12:39:47;24.30;68.70
610;DHT22;292;48.800;9.216;2023-07-28T12:42:15;24.30;69.00
610;DHT22;292;48.800;9.216;2023-07-28T12:44:42;24.30;69.20
610;DHT22;292;48.800;9.216;2023-07-28T12:47:11;24.20;69.30
610;DHT22;292;48.800;9.216;2023-07-28T12:49:38;24.20;69.30
610;DHT22;292;48.800;9.216;2023-07-28T12:52:06;24.20;69.50
610;DHT22;292;48.800;9.216;2023-07-28T12:54:34;24.20;69.80
610;DHT22;292;48.800;9.216;2023-07-28T12:57:04;24.20;69.30
610;DHT22;292;48.800;9.216;2023-07-28T12:59:32;24.20;69.30
610;DHT22;292;48.800;9.216;2023-07-28T13:01:59;24.20;69.30
610;DHT22;292;48.800;9.216;2023-07-28T13:04:28;24.30;69.00
610;DHT22;292;48.800;9.216;2023-07-28T13:06:58;24.30;69.00
610;DHT22;292;48.800;9.216;2023-07-28T13:09:27;24.30;69.00
610;DHT22;292;48.800;9.216;2023-07-28T13:11:54;24.30;69.20
610;DHT22;292;48.800;9.216;2023-07-28T13:14:25;24.30;69.50
610;DHT22;292;48.800;9.216;2023-07-28T13:16:53;24.30;69.30
610;DHT22;292;48.800;9.216;2023-07-28T13:19:20;24.30;69.20
610;DHT22;292;48.800;9.216;2023-07-28T13:21:48;24.30;69.20
610;DHT22;292;48.800;9.216;2023-07-28T13:24:19;24.30;69.20
610;DHT22;292;48.800;9.216;2023-07-28T13:26:48;24.30;69.60
610;DHT22;292;48.800;9.216;2023-07-28T13:29:17;24.40;70.20
610;DHT22;292;48.800;9.216;2023-07-28T13:31:47;24.30;70.60
610;DHT22;292;48.800;9.216;2023-07-28T13:34:14;24.30;70.90
610;DHT22;292;48.800;9.216;2023-07-28T13:36:41;24.30;71.10
610;DHT22;292;48.800;9.216;2023-07-28T13:39:09;24.30;71.50
610;DHT22;292;48.800;9.216;2023-07-28T13:41:39;24.30;72.10
610;DHT22;292;48.800;9.216;2023-07-28T13:44:06;24.20;72.50
610;DHT22;292;48.800;9.216;2023-07-28T13:46:33;24.20;73.10
610;DHT22;292;48.800;9.216;2023-07-28T13:49:02;24.10;73.70
610;DHT22;292;48.800;9.216;2023-07-28T13:51:49;24.10;74.40
610;DHT22;292;48.800;9.216;2023-07-28T13:54:17;23.90;75.40
610;DHT22;292;48.800;9.216;2023-07-28T13:56:44;23.80;76.40
610;DHT22;292;48.800;9.216;2023-07-28T13:59:11;23.70;77.10
610;DHT22;292;48.800;9.216;2023-07-28T14:01:38;23.70;77.80
610;DHT22;292;48.800;9.216;2023-07-28T14:04:07;23.60;78.60
610;DHT22;292;48.800;9.216;2023-07-28T14:06:34;23.50;79.00
610;DHT22;292;48.800;9.216;2023-07-28T14:09:01;23.40;79.30
610;DHT22;292;48.800;9.216;2023-07-28T14:11:28;23.30;79.70
610;DHT22;292;48.800;9.216;2023-07-28T14:13:56;23.20;80.00
610;DHT22;292;48.800;9.216;2023-07-28T14:16:23;23.20;80.60
610;DHT22;292;48.800;9.216;2023-07-28T14:18:51;23.10;81.00
610;DHT22;292;48.800;9.216;2023-07-28T14:21:19;23.00;81.40
610;DHT22;292;48.800;9.216;2023-07-28T14:23:46;22.90;81.70
610;DHT22;292;48.800;9.216;2023-07-28T14:26:14;22.80;82.00
610;DHT22;292;48.800;9.216;2023-07-28T14:28:43;22.70;82.40
610;DHT22;292;48.800;9.216;2023-07-28T14:31:11;22.70;82.80
610;DHT22;292;48.800;9.216;2023-07-28T14:33:37;22.60;82.90
610;DHT22;292;48.800;9.216;2023-07-28T14:36:04;22.50;83.50
610;DHT22;292;48.800;9.216;2023-07-28T14:38:33;22.50;83.80
610;DHT22;292;48.800;9.216;2023-07-28T14:41:00;22.40;84.20
610;DHT22;292;48.800;9.216;2023-07-28T14:43:27;22.40;84.50
610;DHT22;292;48.800;9.216;2023-07-28T14:45:55;22.40;84.80
610;DHT22;292;48.800;9.216;2023-07-28T14:48:22;22.40;85.10
610;DHT22;292;48.800;9.216;2023-07-28T14:50:49;22.40;85.10
610;DHT22;292;48.800;9.216;2023-07-28T14:53:30;22.40;85.20
610;DHT22;292;48.800;9.216;2023-07-28T14:56:00;22.40;85.40
610;DHT22;292;48.800;9.216;2023-07-28T14:58:27;22.40;85.20
610;DHT22;292;48.800;9.216;2023-07-28T15:00:55;22.40;85.40
610;DHT22;292;48.800;9.216;2023-07-28T15:03:24;22.40;85.40
610;DHT22;292;48.800;9.216;2023-07-28T15:05:53;22.40;85.50
610;DHT22;292;48.800;9.216;2023-07-28T15:08:21;22.40;85.80
610;DHT22;292;48.800;9.216;2023-07-28T15:10:51;22.40;86.10
610;DHT22;292;48.800;9.216;2023-07-28T15:13:20;22.40;86.10
610;DHT22;292;48.800;9.216;2023-07-28T15:15:49;22.40;86.10
610;DHT22;292;48.800;9.216;2023-07-28T15:18:16;22.40;86.40
610;DHT22;292;48.800;9.216;2023-07-28T15:20:43;22.40;86.50
610;DHT22;292;48.800;9.216;2023-07-28T15:23:10;22.40;86.50
610;DHT22;292;48.800;9.216;2023-07-28T15:25:38;22.50;86.50
610;DHT22;292;48.800;9.216;2023-07-28T15:28:09;22.50;86.50
610;DHT22;292;48.800;9.216;2023-07-28T15:30:38;22.50;86.50
610;DHT22;292;48.800;9.216;2023-07-28T15:33:05;22.50;86.50
610;DHT22;292;48.800;9.216;2023-07-28T15:35:32;22.50;86.70
610;DHT22;292;48.800;9.216;2023-07-28T15:37:59;22.50;86.70
610;DHT22;292;48.800;9.216;2023-07-28T15:40:26;22.50;86.40
610;DHT22;292;48.800;9.216;2023-07-28T15:42:53;22.50;86.40
610;DHT22;292;48.800;9.216;2023-07-28T15:45:20;22.60;86.40
610;DHT22;292;48.800;9.216;2023-07-28T15:47:48;22.60;86.20
610;DHT22;292;48.800;9.216;2023-07-28T15:50:16;22.60;86.20
610;DHT22;292;48.800;9.216;2023-07-28T15:52:43;22.60;86.10
610;DHT22;292;48.800;9.216;2023-07-28T15:55:10;22.60;86.00
610;DHT22;292;48.800;9.216;2023-07-28T15:57:37;22.60;85.80
610;DHT22;292;48.800;9.216;2023-07-28T16:00:06;22.60;86.00
610;DHT22;292;48.800;9.216;2023-07-28T16:02:35;22.60;86.00
610;DHT22;292;48.800;9.216;2023-07-28T16:05:04;22.60;86.20
610;DHT22;292;48.800;9.216;2023-07-28T16:07:31;22.60;86.40
610;DHT22;292;48.800;9.216;2023-07-28T16:09:58;22.60;86.50
610;DHT22;292;48.800;9.216;2023-07-28T16:12:25;22.60;86.50
610;DHT22;292;48.800;9.216;2023-07-28T16:14:53;22.50;86.70
610;DHT22;292;48.800;9.216;2023-07-28T16:17:20;22.50;86.50
610;DHT22;292;48.800;9.216;2023-07-28T16:19:47;22.50;86.80
610;DHT22;292;48.800;9.216;2023-07-28T16:22:15;22.50;87.00
610;DHT22;292;48.800;9.216;2023-07-28T16:24:43;22.50;86.80
610;DHT22;292;48.800;9.216;2023-07-28T16:27:10;22.50;87.00
610;DHT22;292;48.800;9.216;2023-07-28T16:29:37;22.50;86.80
610;DHT22;292;48.800;9.216;2023-07-28T16:32:04;22.50;86.70
610;DHT22;292;48.800;9.216;2023-07-28T16:34:32;22.40;86.70
610;DHT22;292;48.800;9.216;2023-07-28T16:36:59;22.40;86.70
610;DHT22;292;48.800;9.216;2023-07-28T16:39:28;22.40;86.70
610;DHT22;292;48.800;9.216;2023-07-28T16:41:54;22.40;86.70
610;DHT22;292;48.800;9.216;2023-07-28T16:44:21;22.40;86.80